HUEN

Entebbe International Airport

Kampala, Uganda
METAR HUEN 142100Z 36006KT CAVOK 19/18 Q1019
Observed Flight Rules
Aug-14 @ 21:00 UTC (4 hours ago) Visual Flight Rules
Wind Visibility Clouds
360° at 6 knots 10,000+ meters
  • Clear skies
Temperatures Readings
Current 19°C / 66°F
Dewpoint 18°C / 64°F
Humidity 94%
Altimeter 30.09" Hg
Pressure 1019 hPa
Elevation 1155
METAR HUEN 142100Z 36006KT CAVOK 19/18 Q1019
Observed Flight Rules
Aug-14 @ 21:00 UTC
(4 hours ago)
VFR
Wind Visibility
360° at 6 knots 10,000+ meters
Clouds
  • Clear skies
Temperature Dewpoint
19°C / 66°F 18°C / 64°F
Humidity Altimeter Pressure
94% 30.09" Hg 1019 hPa